Time;durP1;ratioP1;P1;durP2;ratioP2;P2;SDS_P1;SDS_P2;PMS_P1;PMS_P2;Temp;Humidity;BMP_temperature;BMP_pressure;BME280_temperature;BME280_humidity;BME280_pressure;Samples;Min_cycle;Max_cycle;Signal;HPM_P1;HPM_P2
2022/12/09 00:01:04;;;;;;;26.65;15.93;;;;;;;2.90;100.00;99497.72;5094299;28;20212;-76
2022/12/09 00:03:31;;;;;;;26.30;16.85;;;;;;;2.90;100.00;99497.72;5094417;28;20191;-75
2022/12/09 00:05:57;;;;;;;25.95;16.48;;;;;;;2.89;100.00;99493.34;5093694;28;20242;-75
2022/12/09 00:08:24;;;;;;;24.50;16.02;;;;;;;2.92;100.00;99498.56;5096035;28;20212;-73
2022/12/09 00:10:50;;;;;;;26.20;17.08;;;;;;;2.90;100.00;99494.19;5107180;28;20203;-74
2022/12/09 00:13:18;;;;;;;30.30;17.42;;;;;;;2.86;100.00;99490.75;5108842;28;20217;-74
2022/12/09 00:15:45;;;;;;;24.35;15.98;;;;;;;2.98;100.00;99491.31;5106030;28;20242;-74
2022/12/09 00:18:11;;;;;;;28.83;16.90;;;;;;;2.90;100.00;99483.56;5102146;28;20303;-74
2022/12/09 00:20:38;;;;;;;26.67;16.30;;;;;;;2.93;100.00;99488.78;5100670;28;20293;-75
2022/12/09 00:23:04;;;;;;;26.25;16.40;;;;;;;2.95;100.00;99489.59;5097699;28;20192;-75
2022/12/09 00:25:31;;;;;;;32.95;19.52;;;;;;;2.96;100.00;99491.34;5095920;28;20249;-75
2022/12/09 00:27:58;;;;;;;43.35;28.05;;;;;;;2.92;100.00;99487.06;5096501;28;20275;-76
2022/12/09 00:30:26;;;;;;;62.00;40.03;;;;;;;2.90;100.00;99489.75;5096932;28;20246;-75
2022/12/09 00:32:52;;;;;;;60.67;39.95;;;;;;;2.92;100.00;99487.06;5092960;28;20203;-75
2022/12/09 00:35:19;;;;;;;69.63;43.53;;;;;;;3.00;100.00;99489.47;5093058;28;20699;-75
2022/12/09 00:37:45;;;;;;;57.10;40.55;;;;;;;2.98;100.00;99478.88;5092244;28;20743;-76
2022/12/09 00:40:13;;;;;;;64.72;46.53;;;;;;;2.93;100.00;99478.13;5093264;28;20210;-75
2022/12/09 00:42:39;;;;;;;64.28;44.80;;;;;;;2.96;100.00;99483.38;5093436;28;20210;-75
2022/12/09 00:45:07;;;;;;;62.28;44.25;;;;;;;3.00;100.00;99477.03;5093578;28;20217;-75
2022/12/09 00:47:35;;;;;;;51.22;36.38;;;;;;;2.92;100.00;99471.09;5092244;28;20215;-75
2022/12/09 00:50:02;;;;;;;62.97;46.42;;;;;;;2.95;100.00;99484.28;5092697;28;20301;-76
2022/12/09 00:52:28;;;;;;;69.25;49.17;;;;;;;2.97;100.00;99476.28;5092829;28;20200;-75
2022/12/09 00:54:55;;;;;;;61.88;43.95;;;;;;;2.92;100.00;99474.63;5093204;28;20224;-76
2022/12/09 00:57:21;;;;;;;51.55;35.55;;;;;;;2.81;100.00;99482.03;5093105;28;20224;-76
2022/12/09 00:59:48;;;;;;;53.70;36.33;;;;;;;2.86;100.00;99479.25;5092384;28;20196;-75
2022/12/09 01:02:14;;;;;;;56.85;41.78;;;;;;;2.82;100.00;99478.44;5092353;28;20680;-75
2022/12/09 01:04:42;;;;;;;68.25;44.53;;;;;;;2.88;100.00;99480.06;5092791;28;20220;-75
2022/12/09 01:07:10;;;;;;;76.28;51.20;;;;;;;2.95;100.00;99476.31;5093198;28;20198;-75
2022/12/09 01:09:36;;;;;;;84.00;57.55;;;;;;;2.93;100.00;99475.47;5092202;28;20200;-75
2022/12/09 01:12:03;;;;;;;67.47;48.53;;;;;;;2.96;100.00;99471.84;5092919;28;20222;-75
2022/12/09 01:14:30;;;;;;;74.75;55.38;;;;;;;3.01;100.00;99473.47;5092137;28;20305;-75
2022/12/09 01:16:56;;;;;;;57.00;41.83;;;;;;;3.02;100.00;99469.91;5092268;28;20291;-76
2022/12/09 01:19:23;;;;;;;47.15;33.92;;;;;;;3.08;100.00;99477.69;5092250;28;20290;-76
2022/12/09 01:21:53;;;;;;;41.10;30.45;;;;;;;3.03;100.00;99476.06;5092860;28;20208;-76
2022/12/09 01:24:20;;;;;;;43.22;27.23;;;;;;;3.02;100.00;99477.00;5093470;28;20251;-76
2022/12/09 01:26:46;;;;;;;32.33;20.80;;;;;;;3.04;100.00;99469.84;5092820;28;20196;-75
2022/12/09 01:29:13;;;;;;;30.45;20.58;;;;;;;3.01;100.00;99483.22;5091855;28;20200;-76
2022/12/09 01:31:39;;;;;;;33.92;20.17;;;;;;;3.04;100.00;99469.84;5092057;28;20192;-75
2022/12/09 01:34:06;;;;;;;28.30;19.75;;;;;;;3.06;100.00;99471.56;5092489;28;20589;-76
2022/12/09 01:36:32;;;;;;;36.15;23.67;;;;;;;3.07;100.00;99478.59;5092362;28;20232;-76
2022/12/09 01:39:01;;;;;;;27.42;19.92;;;;;;;3.09;100.00;99476.78;5091673;28;20594;-76
2022/12/09 01:41:27;;;;;;;28.70;19.45;;;;;;;3.00;100.00;99471.72;5092332;28;20665;-75
2022/12/09 01:44:15;;;;;;;28.70;19.52;;;;;;;2.99;100.00;99480.63;5092742;28;20196;-75
2022/12/09 01:46:42;;;;;;;24.30;16.40;;;;;;;3.01;100.00;99470.81;5092092;28;20186;-75
2022/12/09 01:49:11;;;;;;;25.00;16.25;;;;;;;3.01;100.00;99470.81;5091995;28;20197;-77
2022/12/09 01:51:39;;;;;;;22.98;15.82;;;;;;;3.02;100.00;99469.91;5093049;28;20200;-75
2022/12/09 01:54:08;;;;;;;26.33;16.10;;;;;;;2.98;100.00;99465.56;5092955;28;20222;-74
2022/12/09 01:56:37;;;;;;;150.93;91.30;;;;;;;2.98;100.00;99465.56;5093102;28;20288;-75
2022/12/09 01:59:08;;;;;;;28.75;16.75;;;;;;;2.93;100.00;99462.19;5092450;28;20320;-76
2022/12/09 02:01:35;;;;;;;24.50;16.02;;;;;;;2.93;100.00;99462.19;5093399;28;20201;-75
2022/12/09 02:04:02;;;;;;;23.83;16.40;;;;;;;2.96;100.00;99464.75;5096733;28;20219;-74
2022/12/09 02:06:29;;;;;;;26.30;16.95;;;;;;;2.92;100.00;99452.47;5098673;28;20219;-74
2022/12/09 02:08:56;;;;;;;26.17;16.67;;;;;;;2.91;100.00;99453.38;5094457;28;20194;-75
2022/12/09 02:11:36;;;;;;;27.15;16.60;;;;;;;2.86;100.00;99453.50;5096728;28;20210;-74
2022/12/09 02:14:08;;;;;;;28.13;16.55;;;;;;;2.89;100.00;99455.22;5098060;28;20225;-75
2022/12/09 02:16:44;;;;;;;24.13;16.45;;;;;;;2.91;100.00;99456.91;5092329;28;20213;-74
2022/12/09 02:19:26;;;;;;;25.90;16.67;;;;;;;2.90;100.00;99446.31;5090872;28;20208;-76
2022/12/09 02:21:57;;;;;;;27.20;15.98;;;;;;;2.91;100.00;99450.72;5092206;28;20192;-75
2022/12/09 02:24:32;;;;;;;23.48;15.95;;;;;;;2.92;100.00;99444.50;5092211;28;20216;-75
2022/12/09 02:27:10;;;;;;;26.13;17.27;;;;;;;2.92;100.00;99445.34;5092427;28;20183;-75
2022/12/09 02:30:11;;;;;;;31.40;18.80;;;;;;;2.96;100.00;99439.94;5095454;28;20180;-75
2022/12/09 02:33:11;;;;;;;27.05;17.10;;;;;;;3.00;100.00;99444.25;5013191;28;20191;-76
2022/12/09 02:35:41;;;;;;;24.95;16.73;;;;;;;2.99;100.00;99438.06;4954914;29;20719;-75
2022/12/09 02:38:11;;;;;;;25.02;16.20;;;;;;;2.90;100.00;99441.00;4954216;29;20239;-74
2022/12/09 02:40:46;;;;;;;24.67;15.85;;;;;;;2.90;100.00;99439.22;4954078;29;20205;-75
2022/12/09 02:43:15;;;;;;;28.10;16.55;;;;;;;2.90;100.00;99435.69;4954848;29;20224;-75
2022/12/09 02:45:43;;;;;;;19.95;14.43;;;;;;;2.88;100.00;99429.53;4954748;29;20228;-76
2022/12/09 02:48:12;;;;;;;30.13;17.95;;;;;;;2.86;100.00;99436.69;4954329;29;20573;-75
2022/12/09 02:50:42;;;;;;;25.25;17.67;;;;;;;2.87;100.00;99428.69;4954477;29;20564;-75
2022/12/09 02:53:12;;;;;;;33.90;17.52;;;;;;;2.88;100.00;99426.88;4954184;29;20659;-75
2022/12/09 02:55:42;;;;;;;28.90;16.98;;;;;;;2.88;100.00;99424.22;4954759;29;20315;-75
2022/12/09 02:58:09;;;;;;;24.02;15.50;;;;;;;2.88;100.00;99419.78;4953362;29;20339;-75
2022/12/09 03:00:37;;;;;;;26.17;16.67;;;;;;;2.87;100.00;99414.47;4954199;29;20295;-75
2022/12/09 03:03:06;;;;;;;26.73;16.33;;;;;;;2.87;100.00;99411.81;4954635;29;20295;-75
2022/12/09 03:05:44;;;;;;;24.60;16.20;;;;;;;2.89;100.00;99410.00;4955502;28;20813;-75
2022/12/09 03:08:17;;;;;;;26.35;15.18;;;;;;;2.93;100.00;99412.50;5031436;28;20186;-75
2022/12/09 03:10:53;;;;;;;25.48;17.13;;;;;;;2.92;100.00;99404.59;5032392;28;20723;-75
2022/12/09 03:13:32;;;;;;;23.10;15.50;;;;;;;2.96;100.00;99406.22;5066220;28;20204;-75
2022/12/09 03:16:06;;;;;;;24.52;17.67;;;;;;;2.95;100.00;99391.19;5074551;28;20228;-76
2022/12/09 03:18:35;;;;;;;24.33;17.05;;;;;;;2.97;100.00;99396.47;5074839;28;20637;-76
2022/12/09 03:21:05;;;;;;;26.65;17.00;;;;;;;2.97;100.00;99392.03;5094138;28;20200;-74
2022/12/09 03:23:34;;;;;;;23.63;16.15;;;;;;;2.95;100.00;99393.88;5105466;28;20204;-74
2022/12/09 03:26:02;;;;;;;23.55;16.58;;;;;;;2.91;100.00;99397.53;5102919;28;20220;-75
2022/12/09 03:28:33;;;;;;;26.35;16.38;;;;;;;2.93;100.00;99390.38;5100456;28;20661;-76
2022/12/09 03:31:05;;;;;;;29.75;17.92;;;;;;;2.92;100.00;99388.66;5094770;28;20199;-75
2022/12/09 03:33:32;;;;;;;26.30;16.17;;;;;;;2.93;100.00;99385.91;5095593;28;20275;-75
2022/12/09 03:36:03;;;;;;;24.30;17.00;;;;;;;2.90;100.00;99382.50;5094445;28;20231;-75
2022/12/09 03:38:36;;;;;;;24.90;16.23;;;;;;;2.88;100.00;99379.88;5093848;28;20214;-75
2022/12/09 03:41:07;;;;;;;26.27;15.35;;;;;;;2.88;100.00;99379.88;5094807;28;20227;-75
2022/12/09 03:43:38;;;;;;;27.30;16.40;;;;;;;2.85;100.00;99371.09;5094048;28;20207;-75
2022/12/09 03:46:05;;;;;;;25.88;17.98;;;;;;;2.82;100.00;99371.22;5094886;28;20220;-74
2022/12/09 03:48:32;;;;;;;25.48;16.08;;;;;;;2.83;100.00;99371.19;5094332;28;20324;-75
2022/12/09 03:51:03;;;;;;;26.92;16.73;;;;;;;2.81;100.00;99375.66;5095216;28;20200;-75
2022/12/09 03:53:38;;;;;;;24.20;16.30;;;;;;;2.80;100.00;99375.69;5094433;28;20614;-75
2022/12/09 03:56:11;;;;;;;25.63;16.35;;;;;;;2.82;100.00;99374.72;5099307;28;20708;-75
2022/12/09 03:58:41;;;;;;;25.35;15.23;;;;;;;2.81;100.00;99375.66;5109875;28;20223;-74
2022/12/09 04:01:08;;;;;;;23.40;15.98;;;;;;;2.82;100.00;99371.22;5104681;28;20283;-75
2022/12/09 04:03:34;;;;;;;26.30;16.17;;;;;;;2.79;100.00;99366.84;5096205;28;20600;-75
2022/12/09 04:06:01;;;;;;;27.30;17.42;;;;;;;2.78;100.00;99372.22;5095373;28;20227;-74
2022/12/09 04:08:28;;;;;;;23.85;16.25;;;;;;;2.75;100.00;99365.22;5094348;28;20227;-75
2022/12/09 04:10:56;;;;;;;24.75;15.88;;;;;;;2.76;100.00;99368.72;5094409;28;20208;-75
2022/12/09 04:13:22;;;;;;;29.15;16.55;;;;;;;2.83;100.00;99373.84;5094188;28;20200;-75
2022/12/09 04:15:49;;;;;;;29.67;17.13;;;;;;;2.85;100.00;99377.31;5094873;28;20314;-72
2022/12/09 04:18:15;;;;;;;25.13;17.35;;;;;;;2.81;100.00;99372.16;5094861;28;20255;-73
2022/12/09 04:20:42;;;;;;;32.30;18.02;;;;;;;2.80;100.00;99362.41;5099619;28;20283;-72
2022/12/09 04:23:08;;;;;;;24.88;16.30;;;;;;;2.79;100.00;99371.31;5097534;28;20588;-74
2022/12/09 04:25:37;;;;;;;25.15;15.40;;;;;;;2.75;100.00;99370.53;5096190;28;20222;-73
2022/12/09 04:28:05;;;;;;;29.02;18.77;;;;;;;2.69;100.00;99366.28;5094647;28;20196;-73
2022/12/09 04:30:31;;;;;;;27.45;16.77;;;;;;;2.65;100.00;99369.94;5093523;28;20202;-74
2022/12/09 04:32:59;;;;;;;25.27;17.38;;;;;;;2.68;100.00;99374.28;5092818;28;20188;-72
2022/12/09 04:35:26;;;;;;;28.33;17.10;;;;;;;2.66;100.00;99363.69;5092705;28;20221;-73
2022/12/09 04:37:52;;;;;;;27.48;18.40;;;;;;;2.65;100.00;99364.63;5092213;28;20693;-74
2022/12/09 04:40:19;;;;;;;27.55;18.20;;;;;;;2.71;100.00;99366.22;5093308;28;20207;-74
2022/12/09 04:42:46;;;;;;;34.10;18.55;;;;;;;2.63;100.00;99371.75;5094109;28;20203;-73
2022/12/09 04:45:13;;;;;;;27.90;17.75;;;;;;;2.61;100.00;99365.63;5094235;28;20224;-73
2022/12/09 04:47:40;;;;;;;24.58;16.92;;;;;;;2.64;100.00;99367.31;5091917;28;20208;-73
2022/12/09 04:50:07;;;;;;;30.40;18.10;;;;;;;2.59;100.00;99366.59;5092493;28;20657;-74
2022/12/09 04:52:34;;;;;;;28.13;17.60;;;;;;;2.53;100.00;99369.41;5093415;28;20237;-73
2022/12/09 04:55:01;;;;;;;31.52;18.85;;;;;;;2.56;100.00;99367.56;5093356;28;20255;-73
2022/12/09 04:57:28;;;;;;;28.20;18.95;;;;;;;2.51;100.00;99369.47;5093060;28;20208;-73
2022/12/09 04:59:55;;;;;;;27.42;17.33;;;;;;;2.49;100.00;99368.66;5094776;28;20593;-75
2022/12/09 05:02:23;;;;;;;33.55;17.05;;;;;;;2.51;100.00;99361.50;5094519;28;20629;-74
2022/12/09 05:04:49;;;;;;;27.42;17.23;;;;;;;2.46;100.00;99363.41;5095584;28;20224;-73
2022/12/09 05:07:16;;;;;;;28.15;17.58;;;;;;;2.43;100.00;99360.84;5095054;28;20202;-73
2022/12/09 05:09:42;;;;;;;28.40;17.90;;;;;;;2.51;100.00;99366.81;5094942;28;20202;-74
2022/12/09 05:12:09;;;;;;;27.35;16.88;;;;;;;2.47;100.00;99363.38;5097762;28;20320;-73
2022/12/09 05:14:36;;;;;;;26.98;16.33;;;;;;;2.46;100.00;99356.28;5107474;28;20310;-73
2022/12/09 05:17:02;;;;;;;30.67;19.45;;;;;;;2.49;100.00;99358.03;5096913;28;20732;-73
2022/12/09 05:19:30;;;;;;;36.45;22.02;;;;;;;2.53;100.00;99358.78;5093819;28;20212;-75
2022/12/09 05:21:57;;;;;;;30.42;19.27;;;;;;;2.54;100.00;99361.41;5093630;28;20194;-73
2022/12/09 05:24:23;;;;;;;30.08;18.80;;;;;;;2.57;100.00;99360.44;5093684;28;20248;-73
2022/12/09 05:26:50;;;;;;;23.33;16.83;;;;;;;2.59;100.00;99356.81;5103049;28;20196;-73
2022/12/09 05:29:16;;;;;;;31.23;18.83;;;;;;;2.60;100.00;99349.72;5102183;28;20255;-72
2022/12/09 05:31:43;;;;;;;28.05;17.08;;;;;;;2.60;100.00;99345.28;5104189;28;20214;-73
2022/12/09 05:34:10;;;;;;;30.30;17.98;;;;;;;2.54;100.00;99348.13;5104176;28;20212;-74
2022/12/09 05:36:37;;;;;;;25.13;17.10;;;;;;;2.53;100.00;99349.00;5094386;28;20646;-74
2022/12/09 05:39:04;;;;;;;26.80;17.73;;;;;;;2.54;100.00;99340.13;5094130;28;20223;-76
2022/12/09 05:41:30;;;;;;;26.50;17.45;;;;;;;2.55;100.00;99346.31;5094751;28;20191;-73
2022/12/09 05:43:57;;;;;;;30.58;17.38;;;;;;;2.49;100.00;99342.94;5093957;28;20188;-73
2022/12/09 05:46:24;;;;;;;28.70;17.35;;;;;;;2.50;100.00;99339.34;5093163;28;20282;-73
2022/12/09 05:48:50;;;;;;;30.23;16.92;;;;;;;2.48;100.00;99335.88;5093341;28;20199;-73
2022/12/09 05:51:22;;;;;;;28.50;18.10;;;;;;;2.47;100.00;99330.63;5093205;28;20192;-74
2022/12/09 05:53:50;;;;;;;28.50;17.25;;;;;;;2.48;100.00;99335.00;5093610;28;20215;-73
2022/12/09 05:56:18;;;;;;;27.15;16.73;;;;;;;2.49;100.00;99327.00;5082071;28;20201;-73
2022/12/09 05:58:45;;;;;;;26.50;16.75;;;;;;;2.50;100.00;99326.06;5091345;28;20311;-72
2022/12/09 06:01:12;;;;;;;23.73;16.45;;;;;;;2.54;100.00;99329.50;5088022;28;20575;-72
2022/12/09 06:03:39;;;;;;;27.33;17.80;;;;;;;2.57;100.00;99323.22;5077075;28;20616;-73
2022/12/09 06:06:06;;;;;;;27.80;18.23;;;;;;;2.62;100.00;99324.84;5076864;28;20226;-74
2022/12/09 06:08:33;;;;;;;26.80;17.50;;;;;;;2.58;100.00;99320.53;5090575;28;20445;-73
2022/12/09 06:11:01;;;;;;;24.92;16.08;;;;;;;2.54;100.00;99323.34;5097286;28;20200;-74
2022/12/09 06:13:28;;;;;;;28.38;17.58;;;;;;;2.54;100.00;99316.22;5098047;28;20279;-74
2022/12/09 06:15:54;;;;;;;27.25;17.52;;;;;;;2.54;100.00;99313.56;5097766;28;20306;-74
2022/12/09 06:18:21;;;;;;;27.55;17.15;;;;;;;2.54;100.00;99315.34;5099863;28;20204;-71
2022/12/09 06:20:48;;;;;;;27.02;17.98;;;;;;;2.49;100.00;99315.50;5102222;28;20202;-75
2022/12/09 06:23:14;;;;;;;29.10;17.45;;;;;;;2.43;100.00;99318.31;5104484;28;20238;-72
2022/12/09 06:25:44;;;;;;;27.83;17.60;;;;;;;2.43;100.00;99320.97;5102609;28;20326;-73
2022/12/09 06:28:12;;;;;;;22.50;15.95;;;;;;;2.38;100.00;99318.47;5099201;28;20206;-75
2022/12/09 06:30:39;;;;;;;27.75;17.20;;;;;;;2.38;100.00;99317.59;5103507;28;20389;-73
2022/12/09 06:33:05;;;;;;;23.63;15.98;;;;;;;2.41;100.00;99321.03;5102104;28;20196;-72
2022/12/09 06:35:32;;;;;;;25.13;16.42;;;;;;;2.43;100.00;99323.63;5103682;28;20311;-73
2022/12/09 06:37:59;;;;;;;27.05;17.65;;;;;;;2.48;100.00;99327.03;5104802;28;20227;-72
2022/12/09 06:40:25;;;;;;;27.17;16.60;;;;;;;2.47;100.00;99322.63;5104141;28;20291;-75
2022/12/09 06:42:52;;;;;;;29.05;16.00;;;;;;;2.49;100.00;99329.66;5098262;28;20231;-73
2022/12/09 06:45:20;;;;;;;28.52;16.27;;;;;;;2.49;100.00;99334.97;5097587;28;20259;-73
2022/12/09 06:47:47;;;;;;;24.40;16.30;;;;;;;2.41;100.00;99328.13;5100112;28;20207;-76
2022/12/09 06:50:14;;;;;;;26.15;17.50;;;;;;;2.41;100.00;99333.44;5102650;28;20192;-74
2022/12/09 06:52:41;;;;;;;27.50;18.02;;;;;;;2.35;100.00;99336.25;5097068;28;20729;-75
2022/12/09 06:55:09;;;;;;;22.92;16.75;;;;;;;2.41;100.00;99323.69;5096629;28;20318;-73
2022/12/09 06:57:35;;;;;;;25.35;16.80;;;;;;;2.50;100.00;99338.47;5095445;28;20240;-74
2022/12/09 07:00:03;;;;;;;25.25;17.08;;;;;;;2.48;100.00;99335.00;5096242;28;20216;-70
2022/12/09 07:02:33;;;;;;;22.63;15.45;;;;;;;2.53;100.00;99334.84;5095481;28;20204;-73
2022/12/09 07:04:59;;;;;;;33.03;18.17;;;;;;;2.52;100.00;99331.34;5095367;28;20321;-72
2022/12/09 07:07:26;;;;;;;27.23;17.75;;;;;;;2.53;100.00;99337.53;5094550;28;20203;-72
2022/12/09 07:09:53;;;;;;;29.80;16.60;;;;;;;2.56;100.00;99330.34;5095156;28;20313;-72
2022/12/09 07:12:19;;;;;;;28.63;18.00;;;;;;;2.56;100.00;99330.34;5095182;28;20295;-76
2022/12/09 07:14:46;;;;;;;24.45;16.23;;;;;;;2.61;100.00;99330.19;5095297;28;20627;-74
2022/12/09 07:17:16;;;;;;;26.05;17.05;;;;;;;2.64;100.00;99333.63;5095603;28;20200;-72
2022/12/09 07:19:44;;;;;;;26.73;16.55;;;;;;;2.58;100.00;99331.16;5094830;28;20238;-72
2022/12/09 07:22:10;;;;;;;22.00;16.48;;;;;;;2.52;100.00;99335.78;5095351;28;20196;-72
2022/12/09 07:24:37;;;;;;;28.40;17.88;;;;;;;2.43;100.00;99334.28;5106555;28;20723;-75
2022/12/09 07:27:05;;;;;;;26.77;17.38;;;;;;;2.38;100.00;99330.88;5110034;28;20649;-73
2022/12/09 07:29:31;;;;;;;26.27;17.27;;;;;;;2.42;100.00;99335.16;5104503;28;20197;-71
2022/12/09 07:31:58;;;;;;;32.75;17.48;;;;;;;2.36;100.00;99336.22;5102644;28;20200;-69
2022/12/09 07:34:25;;;;;;;32.63;18.65;;;;;;;2.29;100.00;99332.88;5094447;28;20215;-71
2022/12/09 07:36:53;;;;;;;52.83;33.88;;;;;;;2.42;100.00;99337.81;5094861;28;20203;-70
2022/12/09 07:39:20;;;;;;;169.65;96.50;;;;;;;2.52;100.00;99336.66;5093588;28;20589;-73
2022/12/09 07:41:51;;;;;;;52.85;31.25;;;;;;;2.44;100.00;99331.56;5094434;28;20287;-73
2022/12/09 07:44:18;;;;;;;35.75;21.92;;;;;;;2.35;100.00;99329.16;5094458;28;20220;-73
2022/12/09 07:46:44;;;;;;;29.65;20.00;;;;;;;2.26;100.00;99334.75;5094776;28;20294;-73
2022/12/09 07:49:11;;;;;;;28.85;18.23;;;;;;;2.21;100.00;99326.03;5096632;28;20198;-71
2022/12/09 07:51:38;;;;;;;28.65;17.48;;;;;;;2.06;100.00;99320.25;5096018;28;20203;-73
2022/12/09 07:54:06;;;;;;;34.03;19.33;;;;;;;2.00;100.00;99324.88;5090645;28;20239;-72
2022/12/09 07:56:32;;;;;;;30.77;17.92;;;;;;;2.00;100.00;99314.25;5094479;28;20204;-73
2022/12/09 07:58:59;;;;;;;30.25;18.58;;;;;;;1.88;100.00;99318.13;5090282;28;20685;-74
2022/12/09 08:01:27;;;;;;;30.63;18.45;;;;;;;1.84;100.00;99324.41;5091351;28;20198;-71
2022/12/09 08:03:55;;;;;;;34.60;21.17;;;;;;;1.75;100.00;99314.03;5094159;28;20287;-72
2022/12/09 08:06:23;;;;;;;36.05;20.05;;;;;;;1.74;100.00;99314.94;5094010;28;20578;-71
2022/12/09 08:08:50;;;;;;;27.08;18.38;;;;;;;1.77;100.00;99315.75;5093414;28;20661;-72
2022/12/09 08:11:23;;;;;;;31.30;18.58;;;;;;;1.82;100.00;99311.16;5093858;28;20652;-74
2022/12/09 08:13:49;;;;;;;35.50;20.67;;;;;;;1.84;100.00;99308.47;5094721;28;20188;-73
2022/12/09 08:16:18;;;;;;;33.40;20.50;;;;;;;2.06;100.00;99311.41;5095530;28;20605;-75
2022/12/09 08:18:45;;;;;;;34.33;21.15;;;;;;;2.24;100.00;99318.88;5095988;28;20290;-73
2022/12/09 08:21:15;;;;;;;32.38;20.10;;;;;;;2.36;100.00;99316.78;5104660;28;20228;-74
2022/12/09 08:23:42;;;;;;;43.88;21.67;;;;;;;2.38;100.00;99313.16;5099768;28;20219;-74
2022/12/09 08:26:10;;;;;;;39.22;23.35;;;;;;;2.48;100.00;99321.72;5096857;28;20196;-73
2022/12/09 08:28:38;;;;;;;35.55;20.27;;;;;;;2.60;100.00;99321.34;5100779;28;20256;-72
2022/12/09 08:31:09;;;;;;;38.33;22.27;;;;;;;2.52;100.00;99315.41;5076715;28;20201;-74
2022/12/09 08:33:35;;;;;;;41.33;21.10;;;;;;;2.79;100.00;99310.16;5076937;28;20196;-74
2022/12/09 08:36:03;;;;;;;40.35;22.27;;;;;;;2.89;100.00;99309.84;5094548;28;20239;-73
2022/12/09 08:38:30;;;;;;;38.25;21.02;;;;;;;3.00;100.00;99312.13;5084210;28;20207;-71
2022/12/09 08:40:57;;;;;;;33.92;20.88;;;;;;;3.06;100.00;99313.75;5096295;28;20212;-72
2022/12/09 08:43:24;;;;;;;33.35;20.13;;;;;;;3.08;100.00;99303.91;5093898;28;20202;-74
2022/12/09 08:45:51;;;;;;;30.45;20.02;;;;;;;3.04;100.00;99308.47;5096334;28;20303;-72
2022/12/09 08:48:18;;;;;;;31.88;18.88;;;;;;;3.15;100.00;99305.47;5097371;28;20203;-72
2022/12/09 08:50:45;;;;;;;33.78;18.92;;;;;;;3.13;100.00;99316.13;5094334;28;20203;-74
2022/12/09 08:53:11;;;;;;;30.13;18.88;;;;;;;3.13;100.00;99305.50;5095141;28;20189;-73
2022/12/09 08:55:38;;;;;;;25.10;17.23;;;;;;;3.12;100.00;99306.44;5094169;28;20213;-72
2022/12/09 08:58:05;;;;;;;25.10;17.63;;;;;;;3.17;100.00;99311.59;5093561;28;20216;-73
2022/12/09 09:00:31;;;;;;;26.85;17.80;;;;;;;3.29;100.00;99307.66;5092999;28;20604;-73
2022/12/09 09:02:59;;;;;;;27.55;17.02;;;;;;;3.40;100.00;99307.31;5092891;28;20253;-74
2022/12/09 09:05:26;;;;;;;31.10;17.67;;;;;;;3.46;100.00;99304.41;5095319;28;20303;-73
2022/12/09 09:07:53;;;;;;;26.48;16.50;;;;;;;3.57;100.00;99296.94;5094091;28;20203;-72
2022/12/09 09:10:19;;;;;;;24.10;16.20;;;;;;;3.72;100.00;99300.88;5094836;28;20228;-73
2022/12/09 09:12:46;;;;;;;24.30;16.55;;;;;;;3.76;100.00;99303.38;5095012;28;20224;-75
2022/12/09 09:15:12;;;;;;;25.73;16.80;;;;;;;3.78;100.00;99305.09;5093881;28;20659;-75
2022/12/09 09:17:39;;;;;;;25.90;15.82;;;;;;;3.81;100.00;99305.88;5093024;28;20224;-73
2022/12/09 09:20:08;;;;;;;29.63;17.15;;;;;;;3.93;100.00;99304.56;5094922;28;20220;-76
2022/12/09 09:22:35;;;;;;;23.85;16.30;;;;;;;4.14;100.00;99301.16;5093634;28;20226;-73
2022/12/09 09:25:01;;;;;;;26.30;15.63;;;;;;;4.08;100.00;99300.50;5093036;28;20230;-73
2022/12/09 09:27:28;;;;;;;25.13;15.40;;;;;;;4.26;100.00;99302.47;5092308;28;20221;-72
2022/12/09 09:29:54;;;;;;;29.98;17.10;;;;;;;4.64;100.00;99300.16;5092860;28;20194;-72
2022/12/09 09:32:21;;;;;;;21.42;14.77;;;;;;;4.76;100.00;99296.16;5093499;28;20628;-73
2022/12/09 09:34:49;;;;;;;24.40;16.40;;;;;;;5.34;100.00;99288.47;5093160;28;20296;-71
2022/12/09 09:37:17;;;;;;;25.88;15.55;;;;;;;5.65;100.00;99295.16;5092339;28;20200;-74
2022/12/09 09:39:43;;;;;;;21.38;14.55;;;;;;;5.95;100.00;99293.00;5092501;28;20230;-73
2022/12/09 09:42:16;;;;;;;40.55;29.42;;;;;;;5.75;100.00;99288.50;5091519;28;20200;-69
2022/12/09 09:44:44;;;;;;;33.03;21.55;;;;;;;5.80;100.00;99294.50;5083341;28;20693;-71
2022/12/09 09:47:15;;;;;;;22.13;15.40;;;;;;;5.39;100.00;99286.47;5092670;28;20196;-72
2022/12/09 09:49:45;;;;;;;20.15;14.05;;;;;;;5.35;100.00;99286.66;5092872;28;20188;-73
2022/12/09 09:52:16;;;;;;;17.75;13.13;;;;;;;5.48;100.00;99284.34;5092372;28;20191;-72
2022/12/09 09:54:44;;;;;;;19.50;12.90;;;;;;;6.07;100.00;99280.03;5092063;28;20700;-70
2022/12/09 09:57:15;;;;;;;21.10;14.15;;;;;;;6.14;100.00;99282.34;5091559;28;20573;-71
2022/12/09 09:59:52;;;;;;;22.75;13.80;;;;;;;6.16;100.00;99274.28;5089661;28;20204;-76
2022/12/09 10:02:29;;;;;;;20.85;12.70;;;;;;;6.92;100.00;99275.19;5085264;28;20199;-72
2022/12/09 10:05:05;;;;;;;20.15;13.35;;;;;;;6.91;100.00;99270.75;5083980;28;20212;-74
2022/12/09 10:07:38;;;;;;;19.77;13.15;;;;;;;6.62;100.00;99259.63;5071926;28;20208;-73
2022/12/09 10:10:16;;;;;;;20.00;14.30;;;;;;;6.48;100.00;99270.13;5088139;28;20188;-74
2022/12/09 10:12:58;;;;;;;19.40;12.23;;;;;;;7.06;100.00;99263.81;5092516;28;20554;-73
2022/12/09 10:15:29;;;;;;;17.08;12.25;;;;;;;7.21;100.00;99257.69;5090987;28;20225;-75
2022/12/09 10:18:12;;;;;;;18.55;13.35;;;;;;;7.25;100.00;99261.94;5092321;28;20202;-73
2022/12/09 10:20:41;;;;;;;17.05;11.63;;;;;;;7.75;100.00;99262.13;5092582;28;20208;-74
2022/12/09 10:23:13;;;;;;;16.45;12.50;;;;;;;8.08;100.00;99246.06;5092927;28;20557;-74
2022/12/09 10:25:46;;;;;;;16.95;11.90;;;;;;;7.93;100.00;99245.06;5092628;28;20224;-72
2022/12/09 10:28:20;;;;;;;17.48;12.13;;;;;;;8.66;100.00;99242.94;5092155;28;20195;-75
2022/12/09 10:30:48;;;;;;;15.38;11.80;;;;;;;9.33;100.00;99248.06;5091597;28;20196;-74
2022/12/09 10:33:17;;;;;;;19.92;12.38;;;;;;;9.28;96.85;99248.34;5092074;28;20533;-74
2022/12/09 10:35:44;;;;;;;15.10;11.82;;;;;;;8.62;100.00;99259.28;5092350;28;20306;-73
2022/12/09 10:38:13;;;;;;;14.85;11.15;;;;;;;7.99;100.00;99249.25;5091945;28;20571;-74
2022/12/09 10:40:53;;;;;;;17.20;12.18;;;;;;;7.21;100.00;99249.66;5092435;28;20586;-73
2022/12/09 10:43:34;;;;;;;15.68;12.10;;;;;;;6.62;100.00;99254.28;5092599;28;20188;-74
2022/12/09 10:46:02;;;;;;;17.52;12.57;;;;;;;6.44;100.00;99252.47;5092167;28;20304;-74
2022/12/09 10:48:31;;;;;;;16.25;11.95;;;;;;;6.26;100.00;99268.44;5085870;28;20592;-74
2022/12/09 10:51:00;;;;;;;14.75;11.18;;;;;;;6.35;100.00;99264.47;5081490;28;20211;-73
2022/12/09 10:53:29;;;;;;;17.33;11.75;;;;;;;6.70;100.00;99261.94;5090395;28;20239;-72
2022/12/09 10:56:00;;;;;;;17.20;11.82;;;;;;;7.21;100.00;99260.38;5089779;28;20230;-72
2022/12/09 10:58:28;;;;;;;17.67;10.95;;;;;;;7.61;100.00;99261.00;5081601;28;20184;-74
2022/12/09 11:01:01;;;;;;;15.65;11.02;;;;;;;7.33;100.00;99250.84;5092235;28;20223;-75
2022/12/09 11:03:31;;;;;;;14.88;11.63;;;;;;;7.23;100.00;99250.41;5086452;28;20562;-74
2022/12/09 11:06:01;;;;;;;16.05;11.15;;;;;;;6.72;100.00;99243.16;5079530;28;20229;-72
2022/12/09 11:08:29;;;;;;;17.88;12.65;;;;;;;6.53;100.00;99236.00;5101305;28;20649;-74
2022/12/09 11:10:56;;;;;;;16.30;12.30;;;;;;;6.58;100.00;99246.47;5084098;28;20199;-74
2022/12/09 11:13:38;;;;;;;17.58;12.43;;;;;;;6.57;100.00;99240.25;5084594;28;20235;-74
2022/12/09 11:16:06;;;;;;;13.68;11.35;;;;;;;6.66;100.00;99229.13;5081768;28;20284;-75
2022/12/09 11:18:37;;;;;;;19.10;13.95;;;;;;;6.89;100.00;99219.97;5097038;28;20248;-72
2022/12/09 11:21:06;;;;;;;21.77;16.15;;;;;;;7.10;100.00;99226.09;5089907;28;20220;-76
2022/12/09 11:23:34;;;;;;;15.77;11.77;;;;;;;7.04;100.00;99220.16;5092625;28;20717;-75